createdAt,value
2022-12-08T00:02:19.755Z,99543.31
2022-12-08T00:06:43.510Z,99542.47
2022-12-08T00:10:49.434Z,99541.56
2022-12-08T00:14:55.205Z,99536.38
2022-12-08T00:18:58.067Z,99538.13
2022-12-08T00:23:01.022Z,99541.59
2022-12-08T00:27:04.172Z,99538.13
2022-12-08T00:31:12.678Z,99532.06
2022-12-08T00:35:15.891Z,99537.34
2022-12-08T00:39:19.435Z,99539.16
2022-12-08T00:43:22.316Z,99526.13
2022-12-08T00:47:26.577Z,99527.94
2022-12-08T00:51:29.640Z,99528.03
2022-12-08T00:55:32.556Z,99526.22
2022-12-08T00:59:35.439Z,99522.63
2022-12-08T01:03:40.120Z,99538.03
2022-12-08T01:07:43.085Z,99535.94
2022-12-08T01:11:46.408Z,99538.28
2022-12-08T01:15:50.046Z,99534.69
2022-12-08T01:19:54.732Z,99539.06
2022-12-08T01:23:58.058Z,99532.06
2022-12-08T01:28:00.980Z,99526.81
2022-12-08T01:32:03.901Z,99521.59
2022-12-08T01:36:09.579Z,99527.63
2022-12-08T01:40:12.540Z,99526.69
2022-12-08T01:44:53.085Z,99522.25
2022-12-08T01:49:02.037Z,99517.91
2022-12-08T01:53:12.090Z,99509.16
2022-12-08T01:57:19.707Z,99510.00
2022-12-08T02:01:23.274Z,99507.38
2022-12-08T02:05:29.111Z,99501.34
2022-12-08T02:09:34.687Z,99497.03
2022-12-08T02:13:37.780Z,99497.91
2022-12-08T02:17:55.579Z,99489.25
2022-12-08T02:22:05.614Z,99497.06
2022-12-08T02:26:45.515Z,99491.91
2022-12-08T02:30:55.247Z,99483.31
2022-12-08T02:35:06.190Z,99483.25
2022-12-08T02:39:19.523Z,99475.41
2022-12-08T02:43:30.648Z,99474.56
2022-12-08T02:47:35.721Z,99469.31
2022-12-08T02:51:40.167Z,99465.75
2022-12-08T02:55:55.685Z,99467.53
2022-12-08T03:00:08.131Z,99465.03
2022-12-08T03:04:19.693Z,99456.25
2022-12-08T03:08:33.494Z,99453.53
2022-12-08T03:12:42.415Z,99459.59
2022-12-08T03:16:49.883Z,99448.28
2022-12-08T03:20:53.331Z,99441.31
2022-12-08T03:24:59.080Z,99436.94
2022-12-08T03:29:02.378Z,99439.47
2022-12-08T03:33:11.354Z,99435.13
2022-12-08T03:37:15.024Z,99434.22
2022-12-08T03:41:20.199Z,99433.34
2022-12-08T03:45:23.211Z,99428.13
2022-12-08T03:49:26.263Z,99429.00
2022-12-08T03:53:29.548Z,99426.47
2022-12-08T03:57:33.981Z,99423.94
2022-12-08T04:01:37.505Z,99418.72
2022-12-08T04:05:40.672Z,99411.78
2022-12-08T04:09:44.923Z,99409.09
2022-12-08T04:13:49.848Z,99416.06
2022-12-08T04:17:53.081Z,99411.78
2022-12-08T04:21:56.475Z,99410.97
2022-12-08T04:25:59.565Z,99413.56
2022-12-08T04:30:04.423Z,99417.06
2022-12-08T04:34:07.716Z,99411.88
2022-12-08T04:38:10.756Z,99404.09
2022-12-08T04:42:13.826Z,99405.00
2022-12-08T04:46:18.364Z,99398.91
2022-12-08T04:50:22.776Z,99394.56
2022-12-08T04:54:26.996Z,99387.56
2022-12-08T04:58:30.141Z,99391.91
2022-12-08T05:02:34.828Z,99383.22
2022-12-08T05:06:37.925Z,99384.97
2022-12-08T05:10:41.133Z,99375.41
2022-12-08T05:14:44.400Z,99380.59
2022-12-08T05:18:48.825Z,99390.16
2022-12-08T05:22:51.853Z,99377.06
2022-12-08T05:26:54.911Z,99378.84
2022-12-08T05:30:58.093Z,99371.88
2022-12-08T05:35:02.617Z,99372.78
2022-12-08T05:39:05.907Z,99368.41
2022-12-08T05:43:09.154Z,99364.91
2022-12-08T05:47:12.149Z,99365.72
2022-12-08T05:51:20.812Z,99371.78
2022-12-08T05:55:23.875Z,99359.50
2022-12-08T05:59:27.187Z,99362.97
2022-12-08T06:03:30.451Z,99357.81
2022-12-08T06:07:34.952Z,99354.34
2022-12-08T06:11:38.017Z,99357.84
2022-12-08T06:15:42.210Z,99357.75
2022-12-08T06:19:45.253Z,99358.66
2022-12-08T06:23:51.456Z,99358.63
2022-12-08T06:27:54.505Z,99357.63
2022-12-08T06:31:57.573Z,99355.03
2022-12-08T06:36:00.860Z,99349.75
2022-12-08T06:40:05.993Z,99364.47
2022-12-08T06:44:09.479Z,99354.72
2022-12-08T06:48:12.473Z,99353.75
2022-12-08T06:52:15.855Z,99352.00
2022-12-08T06:56:22.421Z,99344.25
2022-12-08T07:00:25.836Z,99336.53
2022-12-08T07:04:28.944Z,99354.00
2022-12-08T07:08:32.436Z,99348.81
2022-12-08T07:12:37.046Z,99352.41
2022-12-08T07:16:40.223Z,99350.72
2022-12-08T07:20:43.447Z,99351.59
2022-12-08T07:24:46.621Z,99340.31
2022-12-08T07:28:51.076Z,99343.75
2022-12-08T07:32:54.092Z,99342.03
2022-12-08T07:36:57.137Z,99345.56
2022-12-08T07:41:01.073Z,99345.56
2022-12-08T07:45:06.164Z,99343.81
2022-12-08T07:49:09.216Z,99350.72
2022-12-08T07:53:12.683Z,99349.03
2022-12-08T07:57:16.084Z,99343.84
2022-12-08T08:01:25.660Z,99347.38
2022-12-08T08:05:29.058Z,99356.13
2022-12-08T08:09:32.111Z,99350.16
2022-12-08T08:13:35.489Z,99348.50
2022-12-08T08:17:40.154Z,99352.97
2022-12-08T08:21:45.855Z,99361.84
2022-12-08T08:25:49.637Z,99361.09
2022-12-08T08:29:52.706Z,99353.31
2022-12-08T08:33:57.193Z,99352.53
2022-12-08T08:38:00.589Z,99352.63
2022-12-08T08:42:04.081Z,99351.91
2022-12-08T08:46:09.005Z,99343.13
2022-12-08T08:50:13.559Z,99350.97
2022-12-08T08:54:16.759Z,99343.19
2022-12-08T08:58:19.886Z,99344.13
2022-12-08T09:02:23.471Z,99344.16
2022-12-08T09:06:29.208Z,99348.56
2022-12-08T09:10:32.779Z,99340.97
2022-12-08T09:14:36.147Z,99348.06
2022-12-08T09:18:39.995Z,99340.22
2022-12-08T09:22:44.430Z,99337.56
2022-12-08T09:26:47.766Z,99328.00
2022-12-08T09:30:52.292Z,99318.50
2022-12-08T09:34:55.418Z,99322.00
2022-12-08T09:38:59.854Z,99319.41
2022-12-08T09:43:10.111Z,99307.22
2022-12-08T09:47:19.905Z,99307.22
2022-12-08T09:51:25.920Z,99296.84
2022-12-08T09:55:41.474Z,99291.59
2022-12-08T09:59:48.871Z,99292.47
2022-12-08T10:03:52.142Z,99276.84
2022-12-08T10:08:05.414Z,99282.13
2022-12-08T10:12:16.787Z,99269.19
2022-12-08T10:16:30.128Z,99262.25
2022-12-08T10:20:38.353Z,99260.56
2022-12-08T10:24:45.195Z,99252.78
2022-12-08T10:28:50.439Z,99246.75
2022-12-08T10:32:55.289Z,99245.94
2022-12-08T10:37:00.760Z,99245.16
2022-12-08T10:41:07.687Z,99240.88
2022-12-08T10:45:26.464Z,99234.75
2022-12-08T10:49:33.605Z,99224.38
2022-12-08T10:53:47.207Z,99220.91
2022-12-08T10:57:50.622Z,99213.91
2022-12-08T11:01:57.124Z,99211.31
2022-12-08T11:06:08.936Z,99200.03
2022-12-08T11:10:18.973Z,99203.53
2022-12-08T11:14:25.646Z,99192.13
2022-12-08T11:18:32.446Z,99186.91
2022-12-08T11:22:39.819Z,99175.59
2022-12-08T11:26:49.733Z,99175.63
2022-12-08T11:30:58.787Z,99168.69
2022-12-08T11:35:06.831Z,99162.56
2022-12-08T11:39:13.772Z,99166.91
2022-12-08T11:43:21.694Z,99156.44
2022-12-08T11:47:29.734Z,99162.56
2022-12-08T11:51:38.533Z,99158.19
2022-12-08T11:55:49.907Z,99159.94
2022-12-08T11:59:57.330Z,99159.94
2022-12-08T12:04:15.208Z,99155.66
2022-12-08T12:08:35.444Z,99146.09
2022-12-08T12:12:53.232Z,99150.41
2022-12-08T12:17:05.092Z,99156.56
2022-12-08T12:21:13.229Z,99140.00
2022-12-08T12:25:24.137Z,99140.81
2022-12-08T12:29:30.616Z,99139.03
2022-12-08T12:33:34.974Z,99137.22
2022-12-08T12:37:41.291Z,99135.53
2022-12-08T12:41:48.716Z,99135.53
2022-12-08T12:45:51.889Z,99132.03
2022-12-08T12:50:16.347Z,99133.75
2022-12-08T12:54:23.614Z,99134.59
2022-12-08T12:58:43.514Z,99137.13
2022-12-08T13:02:48.877Z,99138.88
2022-12-08T13:06:52.315Z,99140.56
2022-12-08T13:11:01.939Z,99142.28
2022-12-08T13:15:08.550Z,99133.59
2022-12-08T13:19:16.961Z,99135.31
2022-12-08T13:23:31.253Z,99126.66
2022-12-08T13:27:36.152Z,99122.31
2022-12-08T13:31:48.273Z,99124.06
2022-12-08T13:36:03.376Z,99126.66
2022-12-08T13:40:11.623Z,99123.16
2022-12-08T13:53:56.131Z,99124.88
2022-12-08T13:57:44.969Z,99131.78
2022-12-08T14:01:50.960Z,99121.28
2022-12-08T14:06:12.892Z,99128.25
2022-12-08T14:10:21.145Z,99131.78
2022-12-08T14:15:00.448Z,99124.81
2022-12-08T14:18:52.922Z,99124.81
2022-12-08T14:22:58.972Z,99122.19
2022-12-08T14:27:05.642Z,99127.41
2022-12-08T14:31:14.143Z,99125.69
2022-12-08T14:35:23.370Z,99123.09
2022-12-08T14:39:27.911Z,99117.81
2022-12-08T14:43:32.314Z,99119.56
2022-12-08T14:47:35.704Z,99115.22
2022-12-08T14:51:41.339Z,99121.28
2022-12-08T14:55:47.913Z,99126.50
2022-12-08T14:59:51.765Z,99131.69
2022-12-08T15:04:00.614Z,99128.22
2022-12-08T15:08:05.505Z,99130.81
2022-12-08T15:12:27.272Z,99132.56
2022-12-08T15:16:38.688Z,99140.34
2022-12-08T15:20:44.478Z,99139.50
2022-12-08T15:24:47.540Z,99143.03
2022-12-08T15:28:52.451Z,99144.78
2022-12-08T15:32:56.467Z,99140.41
2022-12-08T15:36:59.651Z,99140.41
2022-12-08T15:41:02.779Z,99137.78
2022-12-08T15:45:08.163Z,99136.94
2022-12-08T15:49:18.513Z,99134.28
2022-12-08T15:53:21.986Z,99133.41
2022-12-08T15:58:04.479Z,99141.22
2022-12-08T16:01:52.314Z,99141.28
2022-12-08T16:06:38.943Z,99143.91
2022-12-08T16:10:22.929Z,99142.19
2022-12-08T16:15:23.821Z,99140.41
2022-12-08T16:18:51.700Z,99143.88
2022-12-08T16:23:03.724Z,99143.91
2022-12-08T16:27:59.414Z,99142.03
2022-12-08T16:31:46.513Z,99136.81
2022-12-08T16:35:51.039Z,99142.91
2022-12-08T16:39:55.911Z,99135.09
2022-12-08T16:44:02.914Z,99129.78
2022-12-08T16:48:06.088Z,99142.00
2022-12-08T16:52:10.518Z,99139.41
2022-12-08T16:56:17.936Z,99135.03
2022-12-08T17:00:22.919Z,99134.16
2022-12-08T17:04:33.148Z,99135.00
2022-12-08T17:08:38.099Z,99138.50
2022-12-08T17:12:41.260Z,99138.50
2022-12-08T17:16:45.306Z,99134.97
2022-12-08T17:20:48.814Z,99131.50
2022-12-08T17:24:53.278Z,99136.69
2022-12-08T17:29:00.912Z,99135.75
2022-12-08T17:33:04.835Z,99138.38
2022-12-08T17:37:08.131Z,99136.63
2022-12-08T17:41:12.919Z,99132.25
2022-12-08T17:45:15.982Z,99133.09
2022-12-08T17:49:21.645Z,99124.38
2022-12-08T17:53:25.092Z,99129.56
2022-12-08T17:57:29.528Z,99126.91
2022-12-08T18:01:34.511Z,99119.94
2022-12-08T18:05:37.669Z,99126.00
2022-12-08T18:09:43.815Z,99113.81
2022-12-08T18:13:49.282Z,99114.72
2022-12-08T18:17:52.563Z,99109.47
2022-12-08T18:21:55.795Z,99112.06
2022-12-08T18:25:59.035Z,99099.00
2022-12-08T18:30:03.862Z,99094.59
2022-12-08T18:34:07.145Z,99104.16
2022-12-08T18:38:10.288Z,99095.47
2022-12-08T18:42:25.814Z,99096.31
2022-12-08T18:46:30.476Z,99098.09
2022-12-08T18:50:33.531Z,99096.25
2022-12-08T18:55:04.731Z,99104.84
2022-12-08T18:59:03.866Z,99104.81
2022-12-08T19:03:08.635Z,99121.28
2022-12-08T19:07:11.834Z,99116.91
2022-12-08T19:11:19.223Z,99102.94
2022-12-08T19:15:22.426Z,99101.13
2022-12-08T19:19:27.163Z,99108.94
2022-12-08T19:23:30.209Z,99110.63
2022-12-08T19:27:34.160Z,99115.00
2022-12-08T19:31:37.328Z,99118.53
2022-12-08T19:35:42.754Z,99115.06
2022-12-08T19:40:05.848Z,99115.09
2022-12-08T19:44:35.852Z,99119.47
2022-12-08T19:48:39.071Z,99121.19
2022-12-08T19:52:44.003Z,99120.31
2022-12-08T19:56:47.394Z,99102.84
2022-12-08T20:00:50.679Z,99118.50
2022-12-08T20:04:53.726Z,99099.38
2022-12-08T20:08:58.254Z,99111.56
2022-12-08T20:13:15.966Z,99112.44
2022-12-08T20:17:19.481Z,99108.06
2022-12-08T20:21:23.014Z,99108.09
2022-12-08T20:25:27.732Z,99115.06
2022-12-08T20:29:30.797Z,99113.34
2022-12-08T20:33:33.889Z,99114.22
2022-12-08T20:37:36.984Z,99109.84
2022-12-08T20:41:41.464Z,99112.47
2022-12-08T20:45:44.550Z,99105.44
2022-12-08T20:49:48.574Z,99114.13
2022-12-08T20:53:51.793Z,99111.50
2022-12-08T20:57:56.469Z,99102.84
2022-12-08T21:02:00.396Z,99110.63
2022-12-08T21:06:03.850Z,99107.91
2022-12-08T21:10:08.753Z,99109.63
2022-12-08T21:14:13.432Z,99103.53
2022-12-08T21:18:16.885Z,99102.63
2022-12-08T21:22:21.119Z,99100.00
2022-12-08T21:26:26.039Z,99096.47
2022-12-08T21:30:30.781Z,99097.34
2022-12-08T21:34:34.231Z,99100.81
2022-12-08T21:38:38.493Z,99093.00
2022-12-08T21:42:44.887Z,99088.66
2022-12-08T21:46:49.590Z,99085.16
2022-12-08T21:50:53.437Z,99081.72
2022-12-08T21:54:56.775Z,99093.84
2022-12-08T21:58:59.905Z,99086.81
2022-12-08T22:03:04.719Z,99089.47
2022-12-08T22:07:08.180Z,99092.09
2022-12-08T22:11:12.452Z,99088.59
2022-12-08T22:15:16.131Z,99098.19
2022-12-08T22:19:20.646Z,99093.88
2022-12-08T22:23:23.908Z,99100.84
2022-12-08T22:27:27.008Z,99084.38
2022-12-08T22:31:30.116Z,99093.88
2022-12-08T22:35:35.157Z,99094.75
2022-12-08T22:39:38.418Z,99088.63
2022-12-08T22:43:42.427Z,99092.09
2022-12-08T22:47:45.657Z,99078.22
2022-12-08T22:51:50.233Z,99094.69
2022-12-08T22:55:53.372Z,99078.22
2022-12-08T22:59:56.487Z,99075.63
2022-12-08T23:04:00.745Z,99073.84
2022-12-08T23:08:07.135Z,99079.03
2022-12-08T23:12:10.240Z,99074.69
2022-12-08T23:16:14.436Z,99065.19
2022-12-08T23:20:17.879Z,99072.94
2022-12-08T23:24:22.368Z,99072.94
2022-12-08T23:28:25.489Z,99064.22
2022-12-08T23:32:28.896Z,99065.94
2022-12-08T23:36:32.128Z,99073.75
2022-12-08T23:40:36.595Z,99070.34
2022-12-08T23:44:40.003Z,99078.28
2022-12-08T23:48:43.334Z,99080.00
2022-12-08T23:52:46.789Z,99076.53
2022-12-08T23:56:51.335Z,99073.00
